Time;durP1;ratioP1;P1;durP2;ratioP2;P2;SDS_P1;SDS_P2;PMS_P1;PMS_P2;Temp;Humidity;BMP_temperature;BMP_pressure;BME280_temperature;BME280_humidity;BME280_pressure;Samples;Min_cycle;Max_cycle;Signal;HPM_P1;HPM_P2
2021/09/23 00:00:35;;;;;;;7.23;4.57;;;;;;;;;;5073265;28;20614;-79
2021/09/23 00:03:31;;;;;;;5.37;3.90;;;;;;;;;;5073096;28;20241;-79
2021/09/23 00:05:58;;;;;;;4.60;4.20;;;;;;;;;;5055185;28;20320;-79
2021/09/23 00:08:25;;;;;;;5.43;4.33;;;;;;;;;;5073156;28;20211;-79
2021/09/23 00:10:51;;;;;;;4.50;4.10;;;;;;;;;;5072892;28;20242;-79
2021/09/23 00:13:18;;;;;;;4.60;4.20;;;;;;;;;;5072899;28;20245;-79
2021/09/23 00:15:45;;;;;;;4.90;4.40;;;;;;;;;;5072442;28;20261;-79
2021/09/23 00:18:14;;;;;;;4.67;4.27;;;;;;;;;;5054775;28;20309;-79
2021/09/23 00:20:42;;;;;;;4.43;4.03;;;;;;;;;;5072750;28;20242;-79
2021/09/23 00:23:09;;;;;;;4.87;4.37;;;;;;;;;;5072565;28;20238;-79
2021/09/23 00:25:36;;;;;;;5.33;3.93;;;;;;;;;;5054251;28;20230;-79
2021/09/23 00:28:04;;;;;;;5.73;4.30;;;;;;;;;;5072248;28;20234;-79
2021/09/23 00:30:31;;;;;;;4.17;3.87;;;;;;;;;;5072533;28;20245;-79
2021/09/23 00:32:58;;;;;;;6.07;4.53;;;;;;;;;;5072396;28;20265;-79
2021/09/23 00:35:26;;;;;;;4.97;3.90;;;;;;;;;;5072592;28;20229;-79
2021/09/23 00:37:53;;;;;;;5.07;3.90;;;;;;;;;;5054634;28;20248;-79
2021/09/23 00:40:20;;;;;;;5.37;4.17;;;;;;;;;;5072305;28;20246;-79
2021/09/23 00:42:48;;;;;;;9.10;4.87;;;;;;;;;;5053899;28;20558;-79
2021/09/23 00:45:16;;;;;;;6.20;4.53;;;;;;;;;;5072117;28;20237;-79
2021/09/23 00:47:43;;;;;;;5.03;4.33;;;;;;;;;;5071316;28;20234;-79
2021/09/23 00:50:10;;;;;;;4.30;4.00;;;;;;;;;;5071873;28;20268;-79
2021/09/23 00:52:39;;;;;;;4.90;3.80;;;;;;;;;;5071761;28;20241;-79
2021/09/23 00:55:07;;;;;;;6.03;3.93;;;;;;;;;;5053641;28;20202;-79
2021/09/23 00:57:33;;;;;;;4.30;3.93;;;;;;;;;;5071574;28;20238;-79
2021/09/23 01:00:00;;;;;;;5.90;4.87;;;;;;;;;;5053870;28;20256;-79
2021/09/23 01:02:27;;;;;;;5.03;4.20;;;;;;;;;;5071348;28;20243;-79
2021/09/23 01:04:53;;;;;;;7.00;4.73;;;;;;;;;;5071538;28;20238;-79
2021/09/23 01:07:21;;;;;;;4.03;3.73;;;;;;;;;;5071830;28;20242;-79
2021/09/23 01:09:49;;;;;;;7.30;4.30;;;;;;;;;;5071491;28;20215;-79
2021/09/23 01:12:16;;;;;;;4.97;4.57;;;;;;;;;;5053601;28;20260;-79
2021/09/23 01:14:44;;;;;;;6.67;4.63;;;;;;;;;;5071026;28;20261;-79
2021/09/23 01:17:11;;;;;;;9.83;4.63;;;;;;;;;;5053638;28;20226;-79
2021/09/23 01:19:38;;;;;;;5.10;4.60;;;;;;;;;;5071775;28;20237;-79
2021/09/23 01:22:06;;;;;;;4.80;4.20;;;;;;;;;;5071063;28;20238;-79
2021/09/23 01:24:33;;;;;;;8.67;4.33;;;;;;;;;;5071385;28;20230;-79
2021/09/23 01:27:01;;;;;;;5.80;4.80;;;;;;;;;;5053651;28;20693;-79
2021/09/23 01:29:28;;;;;;;6.63;4.30;;;;;;;;;;5071694;28;20213;-79
2021/09/23 01:31:55;;;;;;;6.50;4.70;;;;;;;;;;5053239;28;20291;-79
2021/09/23 01:34:21;;;;;;;5.80;4.33;;;;;;;;;;5053102;28;20279;-79
2021/09/23 01:36:48;;;;;;;5.13;4.30;;;;;;;;;;5053467;28;20230;-79
2021/09/23 01:39:18;;;;;;;4.80;4.40;;;;;;;;;;5071253;28;20230;-79
2021/09/23 01:41:45;;;;;;;5.17;4.73;;;;;;;;;;5071269;28;20230;-79
2021/09/23 01:44:11;;;;;;;4.77;4.30;;;;;;;;;;5070870;28;20747;-79
2021/09/23 01:46:38;;;;;;;5.10;4.60;;;;;;;;;;5070849;28;20241;-79
2021/09/23 01:49:05;;;;;;;4.87;4.43;;;;;;;;;;5070906;28;20241;-79
2021/09/23 01:51:31;;;;;;;8.10;4.60;;;;;;;;;;5070854;28;20258;-79
2021/09/23 01:53:58;;;;;;;8.00;4.97;;;;;;;;;;5071232;28;20218;-79
2021/09/23 01:56:26;;;;;;;4.87;4.43;;;;;;;;;;5070584;28;20238;-79
2021/09/23 01:58:53;;;;;;;7.07;4.53;;;;;;;;;;5071392;28;20202;-79
2021/09/23 02:01:21;;;;;;;8.70;4.83;;;;;;;;;;5070584;28;20230;-79
2021/09/23 02:03:47;;;;;;;6.37;5.53;;;;;;;;;;5070899;28;20238;-79
2021/09/23 02:06:14;;;;;;;5.77;4.67;;;;;;;;;;5070718;28;20238;-79
2021/09/23 02:08:41;;;;;;;6.87;5.10;;;;;;;;;;5070600;28;20291;-78
2021/09/23 02:11:07;;;;;;;7.47;5.47;;;;;;;;;;5070840;28;20249;-78
2021/09/23 02:13:35;;;;;;;5.07;4.30;;;;;;;;;;5070932;28;20227;-79
2021/09/23 02:16:02;;;;;;;8.53;4.70;;;;;;;;;;5052848;28;20283;-78
2021/09/23 02:18:29;;;;;;;5.87;5.23;;;;;;;;;;5052609;28;20226;-79
2021/09/23 02:20:55;;;;;;;5.17;4.70;;;;;;;;;;5070677;28;20234;-79
2021/09/23 02:23:22;;;;;;;5.83;4.70;;;;;;;;;;5070392;28;20727;-79
2021/09/23 02:25:49;;;;;;;7.93;5.20;;;;;;;;;;5052444;28;20256;-79
2021/09/23 02:28:15;;;;;;;5.10;4.60;;;;;;;;;;5052460;28;20210;-78
2021/09/23 02:30:43;;;;;;;4.70;4.30;;;;;;;;;;5070875;28;20210;-79
2021/09/23 02:33:10;;;;;;;5.20;4.30;;;;;;;;;;5052365;28;20316;-79
2021/09/23 02:35:37;;;;;;;5.00;4.50;;;;;;;;;;5052521;28;20238;-79
2021/09/23 02:38:03;;;;;;;5.10;4.60;;;;;;;;;;5070542;28;20260;-78
2021/09/23 02:40:30;;;;;;;6.20;4.50;;;;;;;;;;5052860;28;20215;-78
2021/09/23 02:42:56;;;;;;;6.67;4.67;;;;;;;;;;5070491;28;20249;-78
2021/09/23 02:45:23;;;;;;;5.23;4.73;;;;;;;;;;5070413;28;20269;-78
2021/09/23 02:47:52;;;;;;;6.10;4.43;;;;;;;;;;5052664;28;20600;-78
2021/09/23 02:50:18;;;;;;;5.10;4.60;;;;;;;;;;5070611;28;20454;-78
2021/09/23 02:52:45;;;;;;;5.07;4.17;;;;;;;;;;5070670;28;20210;-78
2021/09/23 02:55:12;;;;;;;4.53;4.03;;;;;;;;;;5052482;28;20299;-79
2021/09/23 02:57:38;;;;;;;7.13;4.70;;;;;;;;;;5052510;28;20228;-78
2021/09/23 03:00:06;;;;;;;5.37;4.47;;;;;;;;;;5052423;28;20203;-78
2021/09/23 03:02:32;;;;;;;5.00;4.47;;;;;;;;;;5051965;28;20202;-79
2021/09/23 03:05:01;;;;;;;4.33;3.93;;;;;;;;;;5052388;28;20207;-78
2021/09/23 03:07:28;;;;;;;4.50;4.10;;;;;;;;;;5069931;28;20670;-79
2021/09/23 03:09:54;;;;;;;4.50;4.10;;;;;;;;;;5070017;28;20234;-78
2021/09/23 03:12:21;;;;;;;6.87;4.50;;;;;;;;;;5072971;28;20238;-79
2021/09/23 03:14:47;;;;;;;5.40;4.90;;;;;;;;;;5073979;28;20706;-79
2021/09/23 03:17:14;;;;;;;4.70;4.40;;;;;;;;;;5073683;28;20249;-79
2021/09/23 03:19:41;;;;;;;8.07;4.60;;;;;;;;;;5073692;28;20230;-79
2021/09/23 03:22:10;;;;;;;7.07;4.60;;;;;;;;;;5073526;28;20257;-78
2021/09/23 03:24:36;;;;;;;4.67;4.00;;;;;;;;;;5073677;28;20234;-79
2021/09/23 03:27:03;;;;;;;4.73;4.40;;;;;;;;;;5073501;28;20242;-79
2021/09/23 03:29:30;;;;;;;4.70;4.30;;;;;;;;;;5073692;28;20608;-78
2021/09/23 03:31:56;;;;;;;5.67;4.60;;;;;;;;;;5073492;28;20242;-78
2021/09/23 03:34:23;;;;;;;4.43;4.13;;;;;;;;;;5073165;28;20277;-79
2021/09/23 03:36:50;;;;;;;5.30;4.17;;;;;;;;;;5073677;28;20238;-78
2021/09/23 03:39:18;;;;;;;6.40;4.73;;;;;;;;;;5073388;28;20624;-79
2021/09/23 03:41:44;;;;;;;4.53;4.20;;;;;;;;;;5073278;28;20214;-79
2021/09/23 03:44:11;;;;;;;5.03;4.37;;;;;;;;;;5073181;28;20717;-78
2021/09/23 03:46:38;;;;;;;6.63;4.60;;;;;;;;;;5073228;28;20242;-79
2021/09/23 03:49:05;;;;;;;4.30;4.00;;;;;;;;;;5054883;28;20200;-79
2021/09/23 03:51:31;;;;;;;5.00;4.57;;;;;;;;;;5073035;28;20258;-79
2021/09/23 03:53:58;;;;;;;5.00;4.60;;;;;;;;;;5073173;28;20234;-79
2021/09/23 03:56:26;;;;;;;4.63;4.13;;;;;;;;;;5073558;28;20213;-79
2021/09/23 03:58:53;;;;;;;6.10;4.23;;;;;;;;;;5073347;28;20272;-79
2021/09/23 04:01:19;;;;;;;5.20;4.73;;;;;;;;;;5072116;28;20691;-79
2021/09/23 04:03:46;;;;;;;5.57;4.37;;;;;;;;;;5054432;28;20206;-80
2021/09/23 04:06:13;;;;;;;4.83;4.43;;;;;;;;;;5073298;28;20732;-79
2021/09/23 04:08:40;;;;;;;8.77;4.53;;;;;;;;;;5055217;28;20223;-78
2021/09/23 04:11:06;;;;;;;4.53;4.13;;;;;;;;;;5073005;28;20245;-79
2021/09/23 04:13:34;;;;;;;4.73;4.30;;;;;;;;;;5072919;28;20495;-79
2021/09/23 04:16:01;;;;;;;4.90;4.13;;;;;;;;;;5073188;28;20223;-79
2021/09/23 04:18:27;;;;;;;5.30;4.40;;;;;;;;;;5072199;28;20233;-79
2021/09/23 04:20:54;;;;;;;6.17;4.20;;;;;;;;;;5054282;28;20202;-79
2021/09/23 04:23:21;;;;;;;6.93;4.03;;;;;;;;;;5054490;28;20256;-79
2021/09/23 04:25:47;;;;;;;6.50;3.93;;;;;;;;;;5072819;28;20241;-79
2021/09/23 04:28:14;;;;;;;6.27;4.60;;;;;;;;;;5054386;28;20293;-79
2021/09/23 04:30:42;;;;;;;7.10;4.27;;;;;;;;;;5054435;28;20221;-79
2021/09/23 04:33:09;;;;;;;5.37;4.60;;;;;;;;;;5054805;28;20256;-81
2021/09/23 04:35:35;;;;;;;4.70;4.30;;;;;;;;;;5072466;28;20253;-80
2021/09/23 04:38:02;;;;;;;8.00;4.70;;;;;;;;;;5072737;28;20242;-80
2021/09/23 04:40:29;;;;;;;4.67;4.30;;;;;;;;;;5054510;28;20237;-84
2021/09/23 04:42:55;;;;;;;5.43;4.53;;;;;;;;;;5072589;28;20242;-81
2021/09/23 04:45:22;;;;;;;5.03;4.67;;;;;;;;;;5072056;28;20237;-80
2021/09/23 04:47:50;;;;;;;4.80;4.40;;;;;;;;;;5072655;28;20575;-80
2021/09/23 04:50:16;;;;;;;8.07;6.07;;;;;;;;;;5072144;28;20265;-81
2021/09/23 04:52:43;;;;;;;6.57;5.90;;;;;;;;;;5053887;28;20202;-82
2021/09/23 04:55:10;;;;;;;9.20;5.87;;;;;;;;;;5072263;28;20623;-80
2021/09/23 04:57:36;;;;;;;6.67;6.07;;;;;;;;;;5054146;28;20234;-81
2021/09/23 05:00:04;;;;;;;9.90;7.63;;;;;;;;;;5072177;28;20244;-80
2021/09/23 05:02:32;;;;;;;11.13;6.90;;;;;;;;;;5072294;28;20210;-80
2021/09/23 05:05:00;;;;;;;10.07;7.30;;;;;;;;;;5072064;28;20206;-81
2021/09/23 05:07:26;;;;;;;8.73;7.23;;;;;;;;;;5071564;28;20234;-81
2021/09/23 05:09:53;;;;;;;9.30;6.97;;;;;;;;;;5053559;28;20208;-81
2021/09/23 05:12:20;;;;;;;7.73;6.80;;;;;;;;;;5071936;28;20245;-80
2021/09/23 05:14:46;;;;;;;10.27;6.70;;;;;;;;;;5071164;28;20254;-80
2021/09/23 05:17:13;;;;;;;7.90;7.13;;;;;;;;;;5053730;28;20195;-81
2021/09/23 05:19:41;;;;;;;9.27;7.10;;;;;;;;;;5072354;28;20179;-80
2021/09/23 05:22:09;;;;;;;7.37;6.63;;;;;;;;;;5053898;28;20542;-81
2021/09/23 05:24:36;;;;;;;8.23;6.67;;;;;;;;;;5053715;28;20202;-81
2021/09/23 05:27:03;;;;;;;6.77;6.07;;;;;;;;;;5071729;28;20238;-80
2021/09/23 05:29:29;;;;;;;6.90;5.97;;;;;;;;;;5071016;28;20241;-79
2021/09/23 05:31:56;;;;;;;9.93;6.30;;;;;;;;;;5071636;28;20237;-80
2021/09/23 05:34:23;;;;;;;7.13;6.40;;;;;;;;;;5053043;28;20198;-79
2021/09/23 05:36:50;;;;;;;8.30;6.47;;;;;;;;;;5053793;28;20833;-80
2021/09/23 05:39:18;;;;;;;7.07;6.37;;;;;;;;;;5053347;28;20663;-79
2021/09/23 05:41:45;;;;;;;6.27;5.73;;;;;;;;;;5053375;28;20267;-80
2021/09/23 05:44:12;;;;;;;7.53;6.10;;;;;;;;;;5071580;28;20234;-80
2021/09/23 05:46:38;;;;;;;7.23;6.07;;;;;;;;;;5071948;28;20736;-80
2021/09/23 05:49:05;;;;;;;6.33;5.60;;;;;;;;;;5071707;28;20230;-81
2021/09/23 05:51:32;;;;;;;6.17;5.63;;;;;;;;;;5053092;28;20229;-81
2021/09/23 05:53:59;;;;;;;8.37;6.33;;;;;;;;;;5053653;28;20236;-81
2021/09/23 05:56:27;;;;;;;7.27;6.53;;;;;;;;;;5069314;28;20238;-82
2021/09/23 05:58:54;;;;;;;7.47;6.00;;;;;;;;;;5071303;28;20194;-81
2021/09/23 06:01:20;;;;;;;7.37;6.17;;;;;;;;;;5070826;28;20249;-80
2021/09/23 06:03:47;;;;;;;7.00;6.27;;;;;;;;;;5070914;28;20234;-81
2021/09/23 06:06:14;;;;;;;7.50;6.13;;;;;;;;;;5070737;28;20223;-80
2021/09/23 06:08:40;;;;;;;10.17;6.60;;;;;;;;;;5053113;28;20244;-80
2021/09/23 06:11:07;;;;;;;9.30;6.27;;;;;;;;;;5070858;28;20211;-80
2021/09/23 06:13:35;;;;;;;8.90;6.53;;;;;;;;;;5071049;28;20214;-81
2021/09/23 06:16:02;;;;;;;8.57;6.50;;;;;;;;;;5052583;28;20238;-82
2021/09/23 06:18:28;;;;;;;6.67;5.93;;;;;;;;;;5071162;28;20213;-81
2021/09/23 06:20:55;;;;;;;7.60;6.23;;;;;;;;;;5071614;28;20590;-81
2021/09/23 06:23:22;;;;;;;5.80;5.33;;;;;;;;;;5053105;28;20203;-82
2021/09/23 06:25:49;;;;;;;5.70;5.20;;;;;;;;;;5071504;28;20694;-81
2021/09/23 06:28:16;;;;;;;7.87;5.67;;;;;;;;;;5071084;28;20240;-82
2021/09/23 06:30:44;;;;;;;6.57;5.97;;;;;;;;;;5071053;28;20336;-81
2021/09/23 06:33:11;;;;;;;7.90;6.17;;;;;;;;;;5053554;28;20198;-81
2021/09/23 06:35:37;;;;;;;8.60;5.83;;;;;;;;;;5053369;28;20261;-81
2021/09/23 06:38:04;;;;;;;6.63;5.90;;;;;;;;;;5053192;28;20226;-82
2021/09/23 06:40:31;;;;;;;6.40;5.90;;;;;;;;;;5071251;28;20678;-82
2021/09/23 06:42:57;;;;;;;9.13;5.93;;;;;;;;;;5071568;28;20244;-81
2021/09/23 06:45:24;;;;;;;9.73;6.40;;;;;;;;;;5053681;28;20206;-81
2021/09/23 06:47:52;;;;;;;7.93;5.97;;;;;;;;;;5057007;28;20622;-82
2021/09/23 06:50:19;;;;;;;8.80;5.73;;;;;;;;;;5075142;28;20249;-82
2021/09/23 06:52:46;;;;;;;9.20;6.10;;;;;;;;;;5057424;28;20202;-82
2021/09/23 06:55:13;;;;;;;9.90;5.53;;;;;;;;;;5057258;28;20203;-82
2021/09/23 06:57:40;;;;;;;7.40;6.60;;;;;;;;;;5075174;28;20250;-82
2021/09/23 07:00:08;;;;;;;7.90;5.90;;;;;;;;;;5074884;28;20234;-82
2021/09/23 07:02:34;;;;;;;7.27;6.40;;;;;;;;;;5057114;28;20553;-80
2021/09/23 07:05:03;;;;;;;6.63;6.13;;;;;;;;;;5074861;28;20246;-81
2021/09/23 07:07:29;;;;;;;7.97;6.17;;;;;;;;;;5056432;28;20260;-80
2021/09/23 07:09:56;;;;;;;6.43;5.80;;;;;;;;;;5056293;28;20554;-81
2021/09/23 07:12:23;;;;;;;6.67;5.83;;;;;;;;;;5074658;28;20178;-81
2021/09/23 07:14:49;;;;;;;6.60;5.03;;;;;;;;;;5052850;28;20734;-81
2021/09/23 07:17:16;;;;;;;6.27;5.43;;;;;;;;;;5054885;28;20242;-81
2021/09/23 07:19:43;;;;;;;7.37;6.53;;;;;;;;;;5054462;28;20231;-81
2021/09/23 07:22:11;;;;;;;7.63;6.00;;;;;;;;;;5054694;28;20246;-81
2021/09/23 07:24:38;;;;;;;10.17;5.80;;;;;;;;;;5054557;28;20231;-80
2021/09/23 07:27:05;;;;;;;5.80;5.30;;;;;;;;;;5054296;28;20238;-80
2021/09/23 07:29:32;;;;;;;7.10;5.27;;;;;;;;;;5054498;28;20208;-81
2021/09/23 07:31:59;;;;;;;8.50;5.47;;;;;;;;;;5054634;28;20180;-80
2021/09/23 07:34:26;;;;;;;6.00;5.30;;;;;;;;;;5053044;28;20285;-81
2021/09/23 07:36:53;;;;;;;5.73;5.20;;;;;;;;;;5052783;28;20239;-81
2021/09/23 07:39:21;;;;;;;8.03;5.87;;;;;;;;;;5052912;28;20223;-81
2021/09/23 07:41:47;;;;;;;10.67;5.53;;;;;;;;;;5052743;28;20582;-81
2021/09/23 07:44:15;;;;;;;8.37;5.60;;;;;;;;;;5054145;28;20639;-80
2021/09/23 07:46:42;;;;;;;7.40;5.33;;;;;;;;;;5052699;28;20199;-81
2021/09/23 07:49:10;;;;;;;5.50;5.10;;;;;;;;;;5053957;28;20211;-80
2021/09/23 07:51:37;;;;;;;6.77;5.20;;;;;;;;;;5053903;28;20630;-80
2021/09/23 07:54:03;;;;;;;6.13;5.47;;;;;;;;;;5053954;28;20239;-81
2021/09/23 07:56:32;;;;;;;7.90;5.30;;;;;;;;;;5053250;28;20251;-82
2021/09/23 07:58:59;;;;;;;6.43;4.87;;;;;;;;;;5053621;28;20262;-81
2021/09/23 08:01:26;;;;;;;6.00;5.40;;;;;;;;;;5053593;28;20207;-80
2021/09/23 08:03:54;;;;;;;5.13;4.63;;;;;;;;;;5053701;28;20242;-79
2021/09/23 08:06:20;;;;;;;5.43;5.00;;;;;;;;;;5053670;28;20230;-79
2021/09/23 08:08:47;;;;;;;5.90;4.97;;;;;;;;;;5053487;28;20223;-80
2021/09/23 08:11:14;;;;;;;8.20;4.67;;;;;;;;;;5053468;28;20629;-79
2021/09/23 08:13:42;;;;;;;5.80;4.97;;;;;;;;;;5053413;28;20250;-80
2021/09/23 08:16:08;;;;;;;6.27;5.17;;;;;;;;;;5050838;28;20254;-78
2021/09/23 08:18:35;;;;;;;8.50;5.30;;;;;;;;;;5053123;28;20231;-79
2021/09/23 08:21:02;;;;;;;7.27;5.43;;;;;;;;;;5053326;28;20207;-79
2021/09/23 08:23:28;;;;;;;9.10;6.30;;;;;;;;;;5053119;28;20710;-79
2021/09/23 08:25:55;;;;;;;9.70;6.63;;;;;;;;;;5051650;28;20231;-80
2021/09/23 08:28:23;;;;;;;8.87;6.00;;;;;;;;;;5051697;28;20527;-80
2021/09/23 08:30:51;;;;;;;7.27;5.57;;;;;;;;;;5053370;28;20208;-81
2021/09/23 08:33:18;;;;;;;6.53;5.60;;;;;;;;;;5051150;28;20284;-80
2021/09/23 08:35:45;;;;;;;16.30;5.73;;;;;;;;;;5051698;28;20199;-81
2021/09/23 08:38:11;;;;;;;6.57;5.63;;;;;;;;;;5052983;28;20656;-82
2021/09/23 08:40:38;;;;;;;6.03;5.47;;;;;;;;;;5051269;28;20204;-79
2021/09/23 08:43:05;;;;;;;4.83;4.50;;;;;;;;;;5052894;28;20623;-79
2021/09/23 08:45:32;;;;;;;5.80;5.20;;;;;;;;;;5051414;28;20312;-80
2021/09/23 08:48:00;;;;;;;9.60;6.07;;;;;;;;;;5050679;28;20580;-81
2021/09/23 08:50:27;;;;;;;11.40;5.83;;;;;;;;;;5052795;28;20258;-82
2021/09/23 08:52:54;;;;;;;7.13;5.67;;;;;;;;;;5051160;28;20208;-82
2021/09/23 08:55:24;;;;;;;5.43;5.00;;;;;;;;;;5052975;28;20239;-81
2021/09/23 08:57:50;;;;;;;8.47;5.30;;;;;;;;;;5051590;28;20760;-82
2021/09/23 09:00:17;;;;;;;8.10;5.00;;;;;;;;;;5052793;28;20184;-80
2021/09/23 09:02:58;;;;;;;6.60;5.23;;;;;;;;;;5052589;28;20250;-81
2021/09/23 09:05:27;;;;;;;8.97;7.30;;;;;;;;;;5051095;28;20599;-81
2021/09/23 09:07:59;;;;;;;7.63;5.60;;;;;;;;;;5050216;28;20200;-82
2021/09/23 09:10:26;;;;;;;8.70;5.20;;;;;;;;;;5052354;28;20222;-81
2021/09/23 09:12:53;;;;;;;11.00;5.80;;;;;;;;;;5051310;28;20219;-81
2021/09/23 09:15:27;;;;;;;6.13;5.50;;;;;;;;;;5050612;28;20258;-81
2021/09/23 09:17:54;;;;;;;9.40;5.63;;;;;;;;;;5051012;28;20238;-82
2021/09/23 09:20:21;;;;;;;5.73;4.87;;;;;;;;;;5050804;28;20204;-80
2021/09/23 09:22:49;;;;;;;8.20;5.53;;;;;;;;;;5052133;28;20246;-82
2021/09/23 09:25:15;;;;;;;8.10;5.07;;;;;;;;;;5052601;28;20238;-82
2021/09/23 09:27:43;;;;;;;7.67;5.20;;;;;;;;;;5050802;28;20606;-82
2021/09/23 09:30:12;;;;;;;6.43;4.80;;;;;;;;;;5052360;28;20243;-82
2021/09/23 09:32:40;;;;;;;5.07;4.67;;;;;;;;;;5051759;28;20253;-81
2021/09/23 09:35:08;;;;;;;6.17;4.93;;;;;;;;;;5050904;28;20481;-81
2021/09/23 09:37:34;;;;;;;4.90;4.40;;;;;;;;;;5050506;28;20292;-81
2021/09/23 09:40:04;;;;;;;7.57;4.80;;;;;;;;;;5050781;28;20663;-81
2021/09/23 09:42:31;;;;;;;6.57;4.20;;;;;;;;;;5050723;28;20215;-82
2021/09/23 09:44:59;;;;;;;7.20;5.17;;;;;;;;;;5050473;28;20569;-82
2021/09/23 09:47:30;;;;;;;5.27;4.53;;;;;;;;;;5050347;28;20203;-81
2021/09/23 09:49:58;;;;;;;5.23;3.97;;;;;;;;;;5051969;28;20219;-81
2021/09/23 09:52:28;;;;;;;7.87;3.73;;;;;;;;;;5051858;28;20242;-81
2021/09/23 09:54:59;;;;;;;3.93;3.63;;;;;;;;;;5051807;28;20218;-83
2021/09/23 09:57:28;;;;;;;6.83;4.20;;;;;;;;;;5051475;28;20259;-83
2021/09/23 09:59:54;;;;;;;4.13;3.77;;;;;;;;;;5049975;28;20203;-83
2021/09/23 10:02:21;;;;;;;6.70;4.37;;;;;;;;;;5051562;28;20239;-81
2021/09/23 10:04:48;;;;;;;4.30;3.90;;;;;;;;;;5051642;28;20239;-81
2021/09/23 10:07:16;;;;;;;7.70;4.00;;;;;;;;;;5050231;28;20183;-83
2021/09/23 10:09:47;;;;;;;4.00;3.63;;;;;;;;;;5050174;28;20576;-83
2021/09/23 10:12:14;;;;;;;6.33;3.97;;;;;;;;;;5051112;28;20211;-82
2021/09/23 10:14:43;;;;;;;4.67;4.27;;;;;;;;;;5057717;28;20262;-83
2021/09/23 10:17:10;;;;;;;9.47;4.60;;;;;;;;;;5071650;28;20256;-84
2021/09/23 10:19:40;;;;;;;4.17;3.87;;;;;;;;;;5055221;28;20268;-85
2021/09/23 10:22:07;;;;;;;4.20;3.80;;;;;;;;;;5059492;28;20233;-85
2021/09/23 10:24:35;;;;;;;4.37;3.80;;;;;;;;;;5059800;28;20562;-87
2021/09/23 10:27:02;;;;;;;3.67;3.23;;;;;;;;;;5077855;28;20238;-87
2021/09/23 10:29:30;;;;;;;7.00;4.00;;;;;;;;;;5059746;28;20229;-88
2021/09/23 10:31:58;;;;;;;7.33;4.47;;;;;;;;;;5060039;28;20229;-89
2021/09/23 10:34:26;;;;;;;5.47;3.60;;;;;;;;;;5059959;28;20198;-87
2021/09/23 10:36:53;;;;;;;4.13;3.37;;;;;;;;;;5059691;28;20248;-83
2021/09/23 10:39:19;;;;;;;5.23;3.67;;;;;;;;;;5059413;28;20303;-87
2021/09/23 10:41:46;;;;;;;7.53;3.80;;;;;;;;;;5077592;28;20234;-83
2021/09/23 10:44:13;;;;;;;6.07;3.30;;;;;;;;;;5059871;28;20198;-83
2021/09/23 10:46:40;;;;;;;8.37;3.73;;;;;;;;;;5059832;28;20234;-82
2021/09/23 10:49:10;;;;;;;6.70;3.00;;;;;;;;;;5059715;28;20222;-84
2021/09/23 10:51:36;;;;;;;4.40;3.47;;;;;;;;;;5060238;28;20597;-80
2021/09/23 10:54:05;;;;;;;11.57;3.17;;;;;;;;;;5078179;28;20218;-84
2021/09/23 10:56:33;;;;;;;10.63;2.80;;;;;;;;;;5078250;28;20294;-83
2021/09/23 10:58:59;;;;;;;3.30;3.00;;;;;;;;;;5077639;28;20257;-84
2021/09/23 11:01:28;;;;;;;3.33;2.80;;;;;;;;;;5059231;28;20237;-81
2021/09/23 11:03:56;;;;;;;5.63;2.70;;;;;;;;;;5059317;28;20206;-84
2021/09/23 11:06:31;;;;;;;4.00;2.97;;;;;;;;;;5059573;28;20198;-84
2021/09/23 11:08:59;;;;;;;2.97;2.78;;;;;;;;;;5059174;28;20723;-82
2021/09/23 11:11:26;;;;;;;2.87;2.67;;;;;;;;;;5059475;28;20202;-84
2021/09/23 11:13:53;;;;;;;3.17;2.97;;;;;;;;;;5077785;28;20234;-82
2021/09/23 11:16:19;;;;;;;3.58;2.60;;;;;;;;;;5077788;28;20210;-83
2021/09/23 11:18:48;;;;;;;4.70;2.87;;;;;;;;;;5077087;28;20261;-83
2021/09/23 11:21:14;;;;;;;2.58;2.38;;;;;;;;;;5076893;28;20241;-79
2021/09/23 11:23:42;;;;;;;4.40;2.70;;;;;;;;;;5077185;28;20230;-81
2021/09/23 11:26:09;;;;;;;6.40;3.03;;;;;;;;;;5059530;28;20659;-82
2021/09/23 11:28:37;;;;;;;2.50;2.30;;;;;;;;;;5076933;28;20206;-82
2021/09/23 11:31:03;;;;;;;2.92;2.60;;;;;;;;;;5075893;28;20234;-80
2021/09/23 11:33:30;;;;;;;4.80;2.90;;;;;;;;;;5056254;28;20554;-81
2021/09/23 11:35:57;;;;;;;4.60;2.57;;;;;;;;;;5074604;28;20189;-83
2021/09/23 11:38:25;;;;;;;2.92;2.70;;;;;;;;;;5073982;28;20257;-82
2021/09/23 11:40:55;;;;;;;4.50;2.92;;;;;;;;;;5074189;28;20678;-82
2021/09/23 11:43:22;;;;;;;2.63;2.42;;;;;;;;;;5074033;28;20211;-82
2021/09/23 11:45:51;;;;;;;2.40;2.20;;;;;;;;;;5073793;28;20258;-82
2021/09/23 11:48:23;;;;;;;3.63;2.33;;;;;;;;;;5073561;28;20230;-81
2021/09/23 11:50:51;;;;;;;4.45;2.58;;;;;;;;;;5073763;28;20234;-82
2021/09/23 11:53:19;;;;;;;3.33;2.22;;;;;;;;;;5073713;28;20241;-82
2021/09/23 11:55:55;;;;;;;3.95;2.70;;;;;;;;;;5056151;28;20268;-84
2021/09/23 11:58:22;;;;;;;2.47;2.35;;;;;;;;;;5073467;28;20261;-81
2021/09/23 12:00:49;;;;;;;3.15;2.30;;;;;;;;;;5055623;28;20260;-81
2021/09/23 12:03:17;;;;;;;3.75;2.28;;;;;;;;;;5074174;28;20221;-82
2021/09/23 12:05:44;;;;;;;5.35;2.25;;;;;;;;;;5073655;28;20328;-80
2021/09/23 12:08:12;;;;;;;2.67;2.30;;;;;;;;;;5073494;28;20230;-79
2021/09/23 12:10:43;;;;;;;3.10;2.10;;;;;;;;;;5054953;28;20206;-81
2021/09/23 12:13:13;;;;;;;5.35;2.20;;;;;;;;;;5073189;28;20242;-81
2021/09/23 12:15:40;;;;;;;2.80;2.13;;;;;;;;;;5072933;28;20258;-82
2021/09/23 12:18:10;;;;;;;2.97;2.42;;;;;;;;;;5055132;28;20238;-82
2021/09/23 12:20:37;;;;;;;2.28;2.17;;;;;;;;;;5072894;28;20226;-82
2021/09/23 12:23:18;;;;;;;2.95;2.15;;;;;;;;;;5073051;28;20226;-82
2021/09/23 12:26:00;;;;;;;3.30;2.10;;;;;;;;;;5072800;28;20234;-82
2021/09/23 12:28:29;;;;;;;3.13;1.98;;;;;;;;;;5073178;28;20210;-81
2021/09/23 12:30:59;;;;;;;2.20;2.00;;;;;;;;;;5072755;28;20230;-82
2021/09/23 12:33:25;;;;;;;2.83;2.00;;;;;;;;;;5072805;28;20241;-81
2021/09/23 12:36:06;;;;;;;5.97;2.30;;;;;;;;;;5055007;28;20620;-83
2021/09/23 12:38:33;;;;;;;2.08;1.98;;;;;;;;;;5072553;28;20257;-82
2021/09/23 12:40:59;;;;;;;5.38;1.98;;;;;;;;;;5054819;28;20211;-82
2021/09/23 12:43:34;;;;;;;3.70;2.03;;;;;;;;;;5071582;28;20245;-82
2021/09/23 12:46:10;;;;;;;2.03;1.92;;;;;;;;;;5054959;28;20232;-82
2021/09/23 12:48:37;;;;;;;2.08;1.98;;;;;;;;;;5072374;28;21240;-81
2021/09/23 12:51:04;;;;;;;2.13;2.00;;;;;;;;;;5072373;28;20230;-82
2021/09/23 12:53:30;;;;;;;2.40;2.20;;;;;;;;;;5072982;28;20249;-84
2021/09/23 12:55:57;;;;;;;3.97;1.98;;;;;;;;;;5072719;28;20203;-82
2021/09/23 12:58:24;;;;;;;2.78;1.90;;;;;;;;;;5054491;28;20246;-77
2021/09/23 13:00:52;;;;;;;3.95;1.80;;;;;;;;;;5072182;28;20640;-80
2021/09/23 13:03:19;;;;;;;2.10;2.00;;;;;;;;;;5054200;28;20579;-82
2021/09/23 13:05:47;;;;;;;2.40;1.98;;;;;;;;;;5072057;28;20245;-82
2021/09/23 13:08:20;;;;;;;3.15;2.00;;;;;;;;;;5054097;28;20234;-82
2021/09/23 13:10:47;;;;;;;2.15;2.10;;;;;;;;;;5072094;28;20241;-82
2021/09/23 13:13:14;;;;;;;1.80;1.70;;;;;;;;;;5071628;28;20234;-82
2021/09/23 13:15:46;;;;;;;2.20;2.03;;;;;;;;;;5050379;28;20258;-81
2021/09/23 13:18:15;;;;;;;2.00;1.90;;;;;;;;;;5052729;28;20191;-82
2021/09/23 13:20:44;;;;;;;2.00;1.90;;;;;;;;;;5051951;28;20242;-78
2021/09/23 13:23:15;;;;;;;2.22;2.13;;;;;;;;;;5051715;28;20243;-82
2021/09/23 13:25:42;;;;;;;2.60;2.35;;;;;;;;;;5050518;28;20207;-81
2021/09/23 13:28:19;;;;;;;2.53;2.00;;;;;;;;;;5051978;28;20242;-79
2021/09/23 13:30:46;;;;;;;2.00;1.90;;;;;;;;;;5051524;28;20249;-79
2021/09/23 13:33:14;;;;;;;7.20;1.90;;;;;;;;;;5051873;28;20227;-78
2021/09/23 13:35:41;;;;;;;3.33;1.98;;;;;;;;;;5051984;28;20234;-78
2021/09/23 13:38:08;;;;;;;1.92;1.83;;;;;;;;;;5052228;28;20604;-77
2021/09/23 13:40:34;;;;;;;2.65;1.80;;;;;;;;;;5051789;28;20711;-80
2021/09/23 13:43:01;;;;;;;1.65;1.65;;;;;;;;;;5051801;28;20675;-80
2021/09/23 13:45:28;;;;;;;4.57;1.88;;;;;;;;;;5051593;28;20239;-80
2021/09/23 13:47:54;;;;;;;2.20;1.88;;;;;;;;;;5051868;28;20242;-79
2021/09/23 13:50:22;;;;;;;1.88;1.77;;;;;;;;;;5050019;28;20219;-80
2021/09/23 13:52:49;;;;;;;2.45;1.95;;;;;;;;;;5050485;28;20235;-78
2021/09/23 13:55:16;;;;;;;2.78;1.90;;;;;;;;;;5051354;28;20586;-79
2021/09/23 13:57:43;;;;;;;1.95;1.85;;;;;;;;;;5051818;28;20187;-79
2021/09/23 14:00:10;;;;;;;3.10;1.90;;;;;;;;;;5049821;28;20255;-82
2021/09/23 14:02:37;;;;;;;1.85;1.75;;;;;;;;;;5051628;28;20248;-80
2021/09/23 14:05:04;;;;;;;1.88;1.77;;;;;;;;;;5058153;28;20667;-79
2021/09/23 14:07:32;;;;;;;2.03;1.92;;;;;;;;;;5061164;28;20186;-80
2021/09/23 14:09:59;;;;;;;1.92;1.83;;;;;;;;;;5052186;28;20187;-80
2021/09/23 14:12:26;;;;;;;2.05;1.95;;;;;;;;;;5056599;28;20223;-83
2021/09/23 14:14:52;;;;;;;5.18;2.50;;;;;;;;;;5055598;28;20219;-82
2021/09/23 14:17:19;;;;;;;2.92;1.92;;;;;;;;;;5056397;28;20455;-81
2021/09/23 14:19:46;;;;;;;3.15;2.40;;;;;;;;;;5056280;28;20646;-83
2021/09/23 14:22:12;;;;;;;4.22;2.78;;;;;;;;;;5056375;28;20609;-82
2021/09/23 14:24:41;;;;;;;2.10;2.00;;;;;;;;;;5057696;28;20195;-82
2021/09/23 14:27:07;;;;;;;2.42;2.25;;;;;;;;;;5052384;28;20242;-83
2021/09/23 14:29:36;;;;;;;3.15;2.17;;;;;;;;;;5049295;28;20215;-83
2021/09/23 14:32:03;;;;;;;2.25;2.05;;;;;;;;;;5051048;28;20319;-83
2021/09/23 14:34:30;;;;;;;2.88;2.22;;;;;;;;;;5049123;28;20832;-80
2021/09/23 14:36:56;;;;;;;2.50;2.40;;;;;;;;;;5050586;28;20238;-84
2021/09/23 14:39:23;;;;;;;2.60;1.83;;;;;;;;;;5051431;28;20636;-84
2021/09/23 14:41:51;;;;;;;5.13;2.28;;;;;;;;;;5051932;28;20266;-83
2021/09/23 14:44:18;;;;;;;4.15;2.10;;;;;;;;;;5050473;28;20192;-83